Dream Diva — 3EKW6 — position and weather

sailwx.info

Track history (hours):
 
Tides and Currents Weather Stations Pressure Air Temp Water Temp Dewpoint Dewpoint Depression Visibility Wind Speed Wind Dir Waves Ship Positions

Dream Diva

Last reported at 2016-Dec-31 09:28 UTC. Time now 2017-Jan-16 12:59 UTC.
Position S 26°40' E 153°13'.
Warning: this ship's position is 16 days out of date.

Length 186 m; draft 6.7 m.

Type: Cargo ship. MMSI: 372856000.

Date/timePositionNaut miles runAvg speedWind from/ knotsBaromVisibWave heightAir tempDewpointWater temp
2016-Dec-31 09:28S 26°40' E 153°13'1010.5
2016-Dec-31 08:33S 26°49' E 153°10'1615.7
2016-Dec-31 07:33S 27°03' E 153°18'1413.8
2016-Dec-31 06:34S 27°17' E 153°15'7 7.1
2016-Dec-31 05:31S 27°23' E 153°10'0 0.0
2016-Dec-31 04:31S 27°23' E 153°10'0 0.0
2016-Dec-31 03:31S 27°23' E 153°10'0 0.0
2016-Dec-31 02:31S 27°23' E 153°10'0 0.0
2016-Dec-31 01:31S 27°23' E 153°10'0 0.0
2016-Dec-31 00:31S 27°23' E 153°10'0 0.1
2016-Dec-30 23:34S 27°23' E 153°10'1211.5
2016-Dec-30 22:33S 27°14' E 153°19'1716.9
2016-Dec-30 21:33S 26°58' E 153°14'1313.5
2016-Dec-30 20:33S 26°45' E 153°13'1313.2
2016-Dec-30 19:33S 26°50' E 153°26'1615.7
2016-Dec-30 18:33S 26°60' E 153°40'1515.4
2016-Dec-30 17:33S 27°15' E 153°43'1714.7
2016-Dec-30 16:25S 27°31' E 153°46'1214.3
2016-Dec-30 15:33S 27°44' E 153°48'1514.4
2016-Dec-30 14:32S 27°58' E 153°50'1514.1
2016-Dec-30 13:29S 28°13' E 153°53'1414.2
2016-Dec-30 12:28S 28°27' E 153°55'1413.7
2016-Dec-30 11:27S 28°41' E 153°54'1513.7
2016-Dec-30 10:21S 28°56' E 153°50'1815.0
2016-Dec-30 09:10S 29°13' E 153°45'15815.8
2016-Dec-29 23:10S 31°45' E 152°58'1016.6
2016-Dec-29 22:33S 31°55' E 152°54'1717.0
2016-Dec-29 21:33S 32°11' E 152°48'1717.3
2016-Dec-29 20:33S 32°28' E 152°41'1716.7
2016-Dec-29 19:33S 32°42' E 152°31'1716.6
2016-Dec-29 18:33S 32°56' E 152°21'1717.3
2016-Dec-29 17:33S 33°11' E 152°10'1717.4
2016-Dec-29 16:33S 33°23' E 151°55'1716.8
2016-Dec-29 15:33S 33°37' E 151°44'1717.2
2016-Dec-29 14:33S 33°51' E 151°32'  
2016-Dec-24 06:33S 34°47' E 138°29'10 7.4
2016-Dec-24 05:16S 34°51' E 138°19'710.3
2016-Dec-24 04:33S 34°57' E 138°14'1511.4
2016-Dec-24 03:16S 35°10' E 138°04'3 1.4
2016-Dec-24 01:19S 35°12' E 138°03'1 0.6
2016-Dec-24 00:31S 35°13' E 138°03'2 0.7
2016-Dec-23 21:31S 35°15' E 138°03'  
Track history (hours):
 
Tides and Currents Weather Stations Pressure Air Temp Water Temp Dewpoint Dewpoint Depression Visibility Wind Speed Wind Dir Waves Ship Positions

Dream Diva

Last reported at 2016-Dec-31 09:28 UTC. Time now 2017-Jan-16 12:59 UTC.
Position S 26°40' E 153°13'.
Warning: this ship's position is 16 days out of date.

Length 186 m; draft 6.7 m.

Type: Cargo ship. MMSI: 372856000.

Date/timePositionNaut miles runAvg speedWind from/ knotsBaromVisibWave heightAir tempDewpointWater temp
2016-Dec-31 09:28S 26°40' E 153°13'1010.5
2016-Dec-31 08:33S 26°49' E 153°10'1615.7
2016-Dec-31 07:33S 27°03' E 153°18'1413.8
2016-Dec-31 06:34S 27°17' E 153°15'7 7.1
2016-Dec-31 05:31S 27°23' E 153°10'0 0.0
2016-Dec-31 04:31S 27°23' E 153°10'0 0.0
2016-Dec-31 03:31S 27°23' E 153°10'0 0.0
2016-Dec-31 02:31S 27°23' E 153°10'0 0.0
2016-Dec-31 01:31S 27°23' E 153°10'0 0.0
2016-Dec-31 00:31S 27°23' E 153°10'0 0.1
2016-Dec-30 23:34S 27°23' E 153°10'1211.5
2016-Dec-30 22:33S 27°14' E 153°19'1716.9
2016-Dec-30 21:33S 26°58' E 153°14'1313.5
2016-Dec-30 20:33S 26°45' E 153°13'1313.2
2016-Dec-30 19:33S 26°50' E 153°26'1615.7
2016-Dec-30 18:33S 26°60' E 153°40'1515.4
2016-Dec-30 17:33S 27°15' E 153°43'1714.7
2016-Dec-30 16:25S 27°31' E 153°46'1214.3
2016-Dec-30 15:33S 27°44' E 153°48'1514.4
2016-Dec-30 14:32S 27°58' E 153°50'1514.1
2016-Dec-30 13:29S 28°13' E 153°53'1414.2
2016-Dec-30 12:28S 28°27' E 153°55'1413.7
2016-Dec-30 11:27S 28°41' E 153°54'1513.7
2016-Dec-30 10:21S 28°56' E 153°50'1815.0
2016-Dec-30 09:10S 29°13' E 153°45'15815.8
2016-Dec-29 23:10S 31°45' E 152°58'1016.6
2016-Dec-29 22:33S 31°55' E 152°54'1717.0
2016-Dec-29 21:33S 32°11' E 152°48'1717.3
2016-Dec-29 20:33S 32°28' E 152°41'1716.7
2016-Dec-29 19:33S 32°42' E 152°31'1716.6
2016-Dec-29 18:33S 32°56' E 152°21'1717.3
2016-Dec-29 17:33S 33°11' E 152°10'1717.4
2016-Dec-29 16:33S 33°23' E 151°55'1716.8
2016-Dec-29 15:33S 33°37' E 151°44'1717.2
2016-Dec-29 14:33S 33°51' E 151°32'  
2016-Dec-24 06:33S 34°47' E 138°29'10 7.4
2016-Dec-24 05:16S 34°51' E 138°19'710.3
2016-Dec-24 04:33S 34°57' E 138°14'1511.4
2016-Dec-24 03:16S 35°10' E 138°04'3 1.4
2016-Dec-24 01:19S 35°12' E 138°03'1 0.6
2016-Dec-24 00:31S 35°13' E 138°03'2 0.7
2016-Dec-23 21:31S 35°15' E 138°03'  

Dump ship's entire track history